Terminal Aerodrome Forecast
Issued by NWS

Home | Current Version | Previous Version | Text Only | Print | Product List | Glossary On
Versions: 1 2 3 4 5 6 7 8 9 10 11 12
000
FTUS45 KREV 290522
TAFTVL
TAF
KTVL 290522Z 2906/3006 VRB03KT P6SM SCT150
     FM291700 20010G18KT P6SM SCT080
     FM300300 20006KT P6SM SCT100=

USA.gov is the U.S. government's official web portal to all federal, state and local government web resources and services.